Lojt Kirkeby, Denmark
Current Conditions -  °F | °C
As of 2:20 PM on Sunday 23 Nov 2014 (Local Time) from EKSP Reporting Station
Haze Haze  
Wind Chill: 39°   Ceiling: 15000
Heat Index: 45°   Visibility: 2.8mi
Dew Point: 43°   Wind: 12mph
Humidity: 93%   Direction: 130°SE
Pressure: 30.03"   Gusts: NA
Location:  55.08°N, 9.47°E
Report Text: EKSP 231320Z 13010KT 4500 BR SCT007 BKN150 07/06 Q1017
Loading
Personal Weather Stations






























Interactive Weather Map New forecast layout! Learn more

10-Day Weather Forecast

Advertisements
Track Severe Weather on mobile